Eurocargo Bari — ICMQ — position and weather

sailwx.info

Track history (hours):
 
Tides and Currents Weather Stations Pressure Air Temp Water Temp Dewpoint Dewpoint Depression Visibility Wind Speed Wind Dir Waves Ship Positions

Eurocargo Bari

Last reported at 2017-Oct-19 03:13 UTC. Time now 2017-Oct-19 03:53 UTC.
Position N 39°03' E 002°59'.

Length 200 m; draft 7.2 m.

Type: Ship (hazmat cat A). MMSI: 247320400.

Date/timePositionNaut miles runAvg speedWind from/ knotsBaromVisibWave heightAir tempDewpointWater temp
2017-Oct-19 03:13N 39°03' E 002°59'26719.2
2017-Oct-18 13:16N 38°46' E 008°42'520.3
2017-Oct-18 13:00N 38°46' E 008°49'1220.2
2017-Oct-18 12:25N 38°52' E 009°02'819.2
2017-Oct-18 12:00N 38°59' E 009°08'1019.0
2017-Oct-18 11:30N 39°08' E 009°08'5 9.4
2017-Oct-18 11:00N 39°13' E 009°06'0 0.0
2017-Oct-18 10:30N 39°13' E 009°06'0 0.0
2017-Oct-18 10:00N 39°13' E 009°06'0 0.0
2017-Oct-18 09:30N 39°13' E 009°06'0 0.0
2017-Oct-18 09:00N 39°13' E 009°06'0 0.0
2017-Oct-18 08:30N 39°13' E 009°06'0 0.0
2017-Oct-18 08:00N 39°13' E 009°06'0 0.0
2017-Oct-18 07:30N 39°13' E 009°06'2 4.3
2017-Oct-18 07:00N 39°11' E 009°07'919.0
2017-Oct-18 06:30N 39°05' E 009°17'21820.1
2017-Oct-17 19:39N 40°19' E 013°44'320.6
2017-Oct-17 19:30N 40°20' E 013°48'1720.7
2017-Oct-17 18:42N 40°26' E 014°08'3 0.2
2017-Oct-17 04:46N 40°27' E 014°12'5519.4
2017-Oct-17 01:57N 40°06' E 013°06'4419.4
2017-Oct-16 23:40N 39°49' E 012°13'319.2
2017-Oct-16 23:30N 39°48' E 012°09'1119.1
2017-Oct-16 22:57N 39°44' E 011°56'1619.3
2017-Oct-16 22:09N 39°38' E 011°37'319.7
2017-Oct-16 22:01N 39°37' E 011°34'7219.3
2017-Oct-16 18:17N 39°09' E 010°09'919.1
2017-Oct-16 17:49N 39°06' E 009°58'1218.9
2017-Oct-16 17:11N 39°01' E 009°44'419.5
2017-Oct-16 17:00N 39°00' E 009°40'918.4
2017-Oct-16 16:30N 39°00' E 009°27'1020.2
2017-Oct-16 16:00N 39°05' E 009°16'918.1
2017-Oct-16 15:30N 39°11' E 009°07'2 3.9
2017-Oct-16 14:59N 39°13' E 009°06'0 0.0
2017-Oct-16 14:29N 39°13' E 009°06'0 0.0
2017-Oct-16 13:29N 39°13' E 009°06'0 0.0
2017-Oct-16 12:58N 39°13' E 009°06'0 0.0
2017-Oct-16 12:29N 39°13' E 009°06'0 0.0
2017-Oct-16 11:58N 39°13' E 009°06'0 0.0
2017-Oct-16 11:28N 39°13' E 009°06'0 0.0
2017-Oct-16 10:58N 39°13' E 009°06'0 0.0
2017-Oct-16 10:29N 39°13' E 009°06'0 0.0
2017-Oct-16 09:59N 39°13' E 009°06'0 0.0
2017-Oct-16 09:29N 39°13' E 009°06'0 0.0
2017-Oct-16 08:59N 39°13' E 009°06'0 0.0
2017-Oct-16 08:28N 39°13' E 009°06'0 0.0
2017-Oct-16 07:59N 39°13' E 009°06'0 0.0
2017-Oct-16 07:29N 39°13' E 009°06'0 0.0
2017-Oct-16 06:58N 39°13' E 009°06'0 0.0
2017-Oct-16 06:28N 39°13' E 009°06'0 0.0
2017-Oct-16 05:58N 39°13' E 009°06'0 0.0
2017-Oct-16 05:28N 39°13' E 009°06'1 3.1
2017-Oct-16 05:00N 39°11' E 009°07'611.8
2017-Oct-16 04:30N 39°05' E 009°09'815.9
2017-Oct-16 04:00N 38°57' E 009°08'816.7
2017-Oct-16 03:30N 38°52' E 009°00'917.6
2017-Oct-16 03:00N 38°47' E 008°51'25117.8
2017-Oct-15 12:51N 39°01' E 003°28'818.6
2017-Oct-15 12:24N 39°01' E 003°17'717.9
2017-Oct-15 12:00N 39°02' E 003°08'3 6.1
2017-Oct-15 11:30N 39°02' E 003°04'3 5.8
2017-Oct-15 11:00N 39°02' E 003°01'4 5.7
2017-Oct-15 10:22N 39°03' E 002°56'2 5.7
2017-Oct-15 10:00N 39°03' E 002°53'3 5.6
2017-Oct-15 09:29N 39°04' E 002°50'2 2.8
2017-Oct-15 08:57N 39°04' E 002°48'4 7.9
2017-Oct-15 08:30N 39°04' E 002°43'4 8.0
2017-Oct-15 08:00N 39°05' E 002°38'4 8.0
2017-Oct-15 07:30N 39°05' E 002°33'82 4.8
2017-Oct-14 14:10N 39°18' E 000°48'818.4
2017-Oct-14 13:42N 39°17' E 000°59'6918.3
2017-Oct-14 09:58N 39°06' E 002°26'918.8
2017-Oct-14 09:29N 39°05' E 002°38'1718.6
2017-Oct-14 08:34N 39°03' E 002°60'218.5
2017-Oct-14 08:28N 39°03' E 003°02'918.4
2017-Oct-14 07:59N 39°02' E 003°13'918.3
2017-Oct-14 07:30N 39°01' E 003°25'4718.6
2017-Oct-14 04:59N 38°58' E 004°25'20119.0
2017-Oct-13 18:23N 38°47' E 008°43'719.4
2017-Oct-13 17:59N 38°48' E 008°52'1019.6
2017-Oct-13 17:30N 38°53' E 009°03'918.5
2017-Oct-13 17:00N 39°01' E 009°09'918.1
2017-Oct-13 16:30N 39°10' E 009°07'3 5.6
2017-Oct-13 15:59N 39°13' E 009°06'0 0.0
2017-Oct-13 15:29N 39°13' E 009°06'17 3.3
2017-Oct-13 10:20N 39°02' E 009°24'9 0.2
2017-Oct-11 18:15N 38°58' E 009°33'520.7
2017-Oct-11 18:00N 39°00' E 009°27'1121.0
2017-Oct-11 17:30N 39°06' E 009°16'917.9
2017-Oct-11 17:00N 39°11' E 009°06'22813.0
2017-Oct-10 23:28N 38°58' E 004°13'3321.9
2017-Oct-10 21:58N 39°00' E 003°31'1322.1
2017-Oct-10 21:24N 39°01' E 003°15'821.8
2017-Oct-10 21:00N 39°02' E 003°04'1321.8
2017-Oct-10 20:24N 39°04' E 002°47'821.7
2017-Oct-10 20:01N 39°05' E 002°36'285 7.6
2017-Oct-09 06:26N 38°47' E 008°42'919.5
2017-Oct-09 05:59N 38°48' E 008°53'1019.9
2017-Oct-09 05:28N 38°54' E 009°04'918.7
2017-Oct-09 05:00N 39°02' E 009°09'918.3
2017-Oct-09 04:30N 39°11' E 009°07'2 3.6
2017-Oct-09 03:59N 39°13' E 009°06'0 0.0
2017-Oct-09 03:29N 39°13' E 009°06'  
Track history (hours):
 
Tides and Currents Weather Stations Pressure Air Temp Water Temp Dewpoint Dewpoint Depression Visibility Wind Speed Wind Dir Waves Ship Positions

Eurocargo Bari

Last reported at 2017-Oct-19 03:13 UTC. Time now 2017-Oct-19 03:53 UTC.
Position N 39°03' E 002°59'.

Length 200 m; draft 7.2 m.

Type: Ship (hazmat cat A). MMSI: 247320400.

Date/timePositionNaut miles runAvg speedWind from/ knotsBaromVisibWave heightAir tempDewpointWater temp
2017-Oct-19 03:13N 39°03' E 002°59'26719.2
2017-Oct-18 13:16N 38°46' E 008°42'520.3
2017-Oct-18 13:00N 38°46' E 008°49'1220.2
2017-Oct-18 12:25N 38°52' E 009°02'819.2
2017-Oct-18 12:00N 38°59' E 009°08'1019.0
2017-Oct-18 11:30N 39°08' E 009°08'5 9.4
2017-Oct-18 11:00N 39°13' E 009°06'0 0.0
2017-Oct-18 10:30N 39°13' E 009°06'0 0.0
2017-Oct-18 10:00N 39°13' E 009°06'0 0.0
2017-Oct-18 09:30N 39°13' E 009°06'0 0.0
2017-Oct-18 09:00N 39°13' E 009°06'0 0.0
2017-Oct-18 08:30N 39°13' E 009°06'0 0.0
2017-Oct-18 08:00N 39°13' E 009°06'0 0.0
2017-Oct-18 07:30N 39°13' E 009°06'2 4.3
2017-Oct-18 07:00N 39°11' E 009°07'919.0
2017-Oct-18 06:30N 39°05' E 009°17'21820.1
2017-Oct-17 19:39N 40°19' E 013°44'320.6
2017-Oct-17 19:30N 40°20' E 013°48'1720.7
2017-Oct-17 18:42N 40°26' E 014°08'3 0.2
2017-Oct-17 04:46N 40°27' E 014°12'5519.4
2017-Oct-17 01:57N 40°06' E 013°06'4419.4
2017-Oct-16 23:40N 39°49' E 012°13'319.2
2017-Oct-16 23:30N 39°48' E 012°09'1119.1
2017-Oct-16 22:57N 39°44' E 011°56'1619.3
2017-Oct-16 22:09N 39°38' E 011°37'319.7
2017-Oct-16 22:01N 39°37' E 011°34'7219.3
2017-Oct-16 18:17N 39°09' E 010°09'919.1
2017-Oct-16 17:49N 39°06' E 009°58'1218.9
2017-Oct-16 17:11N 39°01' E 009°44'419.5
2017-Oct-16 17:00N 39°00' E 009°40'918.4
2017-Oct-16 16:30N 39°00' E 009°27'1020.2
2017-Oct-16 16:00N 39°05' E 009°16'918.1
2017-Oct-16 15:30N 39°11' E 009°07'2 3.9
2017-Oct-16 14:59N 39°13' E 009°06'0 0.0
2017-Oct-16 14:29N 39°13' E 009°06'0 0.0
2017-Oct-16 13:29N 39°13' E 009°06'0 0.0
2017-Oct-16 12:58N 39°13' E 009°06'0 0.0
2017-Oct-16 12:29N 39°13' E 009°06'0 0.0
2017-Oct-16 11:58N 39°13' E 009°06'0 0.0
2017-Oct-16 11:28N 39°13' E 009°06'0 0.0
2017-Oct-16 10:58N 39°13' E 009°06'0 0.0
2017-Oct-16 10:29N 39°13' E 009°06'0 0.0
2017-Oct-16 09:59N 39°13' E 009°06'0 0.0
2017-Oct-16 09:29N 39°13' E 009°06'0 0.0
2017-Oct-16 08:59N 39°13' E 009°06'0 0.0
2017-Oct-16 08:28N 39°13' E 009°06'0 0.0
2017-Oct-16 07:59N 39°13' E 009°06'0 0.0
2017-Oct-16 07:29N 39°13' E 009°06'0 0.0
2017-Oct-16 06:58N 39°13' E 009°06'0 0.0
2017-Oct-16 06:28N 39°13' E 009°06'0 0.0
2017-Oct-16 05:58N 39°13' E 009°06'0 0.0
2017-Oct-16 05:28N 39°13' E 009°06'1 3.1
2017-Oct-16 05:00N 39°11' E 009°07'611.8
2017-Oct-16 04:30N 39°05' E 009°09'815.9
2017-Oct-16 04:00N 38°57' E 009°08'816.7
2017-Oct-16 03:30N 38°52' E 009°00'917.6
2017-Oct-16 03:00N 38°47' E 008°51'25117.8
2017-Oct-15 12:51N 39°01' E 003°28'818.6
2017-Oct-15 12:24N 39°01' E 003°17'717.9
2017-Oct-15 12:00N 39°02' E 003°08'3 6.1
2017-Oct-15 11:30N 39°02' E 003°04'3 5.8
2017-Oct-15 11:00N 39°02' E 003°01'4 5.7
2017-Oct-15 10:22N 39°03' E 002°56'2 5.7
2017-Oct-15 10:00N 39°03' E 002°53'3 5.6
2017-Oct-15 09:29N 39°04' E 002°50'2 2.8
2017-Oct-15 08:57N 39°04' E 002°48'4 7.9
2017-Oct-15 08:30N 39°04' E 002°43'4 8.0
2017-Oct-15 08:00N 39°05' E 002°38'4 8.0
2017-Oct-15 07:30N 39°05' E 002°33'82 4.8
2017-Oct-14 14:10N 39°18' E 000°48'818.4
2017-Oct-14 13:42N 39°17' E 000°59'6918.3
2017-Oct-14 09:58N 39°06' E 002°26'918.8
2017-Oct-14 09:29N 39°05' E 002°38'1718.6
2017-Oct-14 08:34N 39°03' E 002°60'218.5
2017-Oct-14 08:28N 39°03' E 003°02'918.4
2017-Oct-14 07:59N 39°02' E 003°13'918.3
2017-Oct-14 07:30N 39°01' E 003°25'4718.6
2017-Oct-14 04:59N 38°58' E 004°25'20119.0
2017-Oct-13 18:23N 38°47' E 008°43'719.4
2017-Oct-13 17:59N 38°48' E 008°52'1019.6
2017-Oct-13 17:30N 38°53' E 009°03'918.5
2017-Oct-13 17:00N 39°01' E 009°09'918.1
2017-Oct-13 16:30N 39°10' E 009°07'3 5.6
2017-Oct-13 15:59N 39°13' E 009°06'0 0.0
2017-Oct-13 15:29N 39°13' E 009°06'17 3.3
2017-Oct-13 10:20N 39°02' E 009°24'9 0.2
2017-Oct-11 18:15N 38°58' E 009°33'520.7
2017-Oct-11 18:00N 39°00' E 009°27'1121.0
2017-Oct-11 17:30N 39°06' E 009°16'917.9
2017-Oct-11 17:00N 39°11' E 009°06'22813.0
2017-Oct-10 23:28N 38°58' E 004°13'3321.9
2017-Oct-10 21:58N 39°00' E 003°31'1322.1
2017-Oct-10 21:24N 39°01' E 003°15'821.8
2017-Oct-10 21:00N 39°02' E 003°04'1321.8
2017-Oct-10 20:24N 39°04' E 002°47'821.7
2017-Oct-10 20:01N 39°05' E 002°36'285 7.6
2017-Oct-09 06:26N 38°47' E 008°42'919.5
2017-Oct-09 05:59N 38°48' E 008°53'1019.9
2017-Oct-09 05:28N 38°54' E 009°04'918.7
2017-Oct-09 05:00N 39°02' E 009°09'918.3
2017-Oct-09 04:30N 39°11' E 009°07'2 3.6
2017-Oct-09 03:59N 39°13' E 009°06'0 0.0
2017-Oct-09 03:29N 39°13' E 009°06'  

Dump ship's entire track history